createdAt,value
2018-08-28T00:02:58.222Z,1.9
2018-08-28T00:08:53.252Z,1.79
2018-08-28T00:14:48.243Z,2.04
2018-08-28T00:20:43.222Z,2.09
2018-08-28T00:26:38.249Z,2.19
2018-08-28T00:32:33.273Z,1.58
2018-08-28T00:38:28.269Z,2.14
2018-08-28T00:44:23.259Z,1.82
2018-08-28T00:50:18.243Z,1.89
2018-08-28T00:56:13.272Z,1.82
2018-08-28T01:02:08.277Z,2.1
2018-08-28T01:08:03.268Z,1.54
2018-08-28T01:13:58.269Z,1.8
2018-08-28T01:19:53.319Z,1.62
2018-08-28T01:25:48.306Z,2.33
2018-08-28T01:31:43.296Z,1.85
2018-08-28T01:37:38.286Z,1.85
2018-08-28T01:43:33.364Z,1.94
2018-08-28T01:49:28.304Z,1.91
2018-08-28T01:55:23.312Z,2.06
2018-08-28T02:01:18.294Z,1.93
2018-08-28T02:07:13.288Z,2.2
2018-08-28T02:13:08.327Z,1.71
2018-08-28T02:19:03.309Z,1.96
2018-08-28T02:24:58.337Z,1.73
2018-08-28T02:30:53.384Z,1.59
2018-08-28T02:36:48.327Z,1.67
2018-08-28T02:42:43.319Z,1.7
2018-08-28T02:48:38.328Z,1.78
2018-08-28T02:54:33.346Z,1.64
2018-08-28T03:00:28.321Z,1.67
2018-08-28T03:06:23.374Z,2.17
2018-08-28T03:12:18.367Z,1.7
2018-08-28T03:18:13.333Z,1.55
2018-08-28T03:24:08.397Z,1.89
2018-08-28T03:30:03.339Z,1.59
2018-08-28T03:35:58.361Z,1.58
2018-08-28T03:41:53.346Z,1.58
2018-08-28T03:47:48.384Z,1.77
2018-08-28T03:53:43.460Z,1.55
2018-08-28T03:59:38.385Z,1.72
2018-08-28T04:05:33.387Z,1.8
2018-08-28T04:11:28.406Z,1.25
2018-08-28T04:17:23.450Z,1.9
2018-08-28T04:23:18.385Z,1.83
2018-08-28T04:29:13.384Z,2.23
2018-08-28T04:35:08.398Z,1.98
2018-08-28T04:41:03.414Z,1.9
2018-08-28T04:46:58.408Z,2.17
2018-08-28T04:52:53.396Z,2.37
2018-08-28T04:58:48.438Z,2.73
2018-08-28T05:04:43.446Z,4.19
2018-08-28T05:10:38.421Z,2.28
2018-08-28T05:16:33.495Z,3.09
2018-08-28T05:22:28.429Z,3.25
2018-08-28T05:28:23.411Z,2.35
2018-08-28T05:34:18.413Z,2.59
2018-08-28T05:40:13.432Z,2.27
2018-08-28T05:46:08.456Z,3.93
2018-08-28T05:52:03.449Z,3.79
2018-08-28T05:57:58.457Z,3.07
2018-08-28T06:03:53.461Z,3.51
2018-08-28T06:09:48.461Z,4.31
2018-08-28T06:15:43.476Z,3.53
2018-08-28T06:21:38.463Z,4.37
2018-08-28T06:27:33.468Z,3.57
2018-08-28T06:33:28.471Z,3.12
2018-08-28T06:39:23.475Z,2.13
2018-08-28T06:45:18.458Z,2.27
2018-08-28T06:51:13.529Z,2.38
2018-08-28T06:57:08.507Z,2.4
2018-08-28T07:03:03.553Z,2.02
2018-08-28T07:08:58.475Z,2.15
2018-08-28T07:14:53.488Z,2.31
2018-08-28T07:20:48.552Z,2.28
2018-08-28T07:26:43.491Z,2.21
2018-08-28T07:32:38.536Z,2.24
2018-08-28T07:38:33.545Z,2.43
2018-08-28T07:44:28.505Z,1.7
2018-08-28T07:50:23.510Z,1.84
2018-08-28T07:56:18.513Z,1.9
2018-08-28T08:02:13.517Z,1.64
2018-08-28T08:08:08.511Z,1.9
2018-08-28T08:14:03.532Z,3.28
2018-08-28T08:19:58.525Z,1.59
2018-08-28T08:25:53.519Z,1.8
2018-08-28T08:31:48.537Z,1.67
2018-08-28T08:37:43.533Z,1.46
2018-08-28T08:43:38.543Z,1.66
2018-08-28T08:49:33.540Z,1.47
2018-08-28T08:55:28.564Z,1.79
2018-08-28T09:01:23.616Z,1.71
2018-08-28T09:07:18.533Z,1.61
2018-08-28T09:13:13.590Z,1.72
2018-08-28T09:19:08.555Z,2.03
2018-08-28T09:25:03.626Z,1.75
2018-08-28T09:30:58.568Z,1.78
2018-08-28T09:36:53.563Z,1.85
2018-08-28T09:42:48.561Z,1.83
2018-08-28T09:48:43.580Z,1.92
2018-08-28T09:54:38.583Z,1.74
2018-08-28T10:00:33.601Z,1.37
2018-08-28T10:06:28.606Z,1.7
2018-08-28T10:12:23.590Z,1.34
2018-08-28T10:18:18.611Z,1.61
2018-08-28T10:24:13.646Z,1.18
2018-08-28T10:30:08.626Z,1.4
2018-08-28T10:36:03.606Z,1.45
2018-08-28T10:41:58.603Z,1.57
2018-08-28T10:47:53.601Z,1.41
2018-08-28T10:53:48.613Z,1.46
2018-08-28T10:59:43.625Z,1.1
2018-08-28T11:05:38.627Z,1.13
2018-08-28T11:11:33.618Z,0.95
2018-08-28T11:17:28.663Z,0.93
2018-08-28T11:23:23.639Z,1.11
2018-08-28T11:29:18.674Z,1.6
2018-08-28T11:35:13.648Z,0.86
2018-08-28T11:41:08.636Z,1.21
2018-08-28T11:47:03.680Z,1.17
2018-08-28T11:52:58.647Z,1.23
2018-08-28T11:58:53.640Z,0.92
2018-08-28T12:04:48.788Z,0.9
2018-08-28T12:10:43.671Z,0.89
2018-08-28T12:16:38.655Z,0.97
2018-08-28T12:22:33.685Z,1.05
2018-08-28T12:28:28.656Z,0.98
2018-08-28T12:34:23.684Z,0.85
2018-08-28T12:40:18.679Z,0.81
2018-08-28T12:46:13.680Z,0.94
2018-08-28T12:52:08.685Z,0.71
2018-08-28T12:58:03.704Z,0.8
2018-08-28T13:03:58.698Z,0.67
2018-08-28T13:09:53.707Z,0.61
2018-08-28T13:15:48.727Z,0.72
2018-08-28T13:21:43.693Z,0.75
2018-08-28T13:27:38.704Z,0.57
2018-08-28T13:33:33.727Z,0.5
2018-08-28T13:39:28.742Z,0.68
2018-08-28T13:45:23.748Z,0.6
2018-08-28T13:51:18.725Z,0.65
2018-08-28T13:57:13.742Z,0.59
2018-08-28T14:04:55.201Z,0.7
2018-08-28T14:09:03.749Z,0.49
2018-08-28T14:20:57.878Z,0.74
2018-08-28T14:26:48.742Z,0.54
2018-08-28T14:32:43.749Z,0.52
2018-08-28T14:38:38.756Z,0.6
2018-08-28T14:44:33.749Z,0.8
2018-08-28T14:50:28.810Z,0.74
2018-08-28T14:56:23.816Z,0.7
2018-08-28T15:02:18.770Z,0.96
2018-08-28T15:08:13.782Z,0.87
2018-08-28T15:14:08.767Z,0.85
2018-08-28T15:20:03.777Z,0.73
2018-08-28T15:25:58.787Z,0.73
2018-08-28T15:31:53.784Z,0.72
2018-08-28T15:37:48.793Z,0.75
2018-08-28T15:43:43.847Z,0.95
2018-08-28T15:49:38.788Z,0.92
2018-08-28T15:55:33.834Z,0.75
2018-08-28T16:01:28.848Z,0.92
2018-08-28T16:07:23.815Z,0.78
2018-08-28T16:13:18.804Z,0.93
2018-08-28T16:19:13.828Z,0.99
2018-08-28T16:25:08.818Z,1.03
2018-08-28T16:31:03.856Z,0.93
2018-08-28T16:36:58.854Z,0.92
2018-08-28T16:42:53.980Z,1.07
2018-08-28T16:48:48.853Z,1.17
2018-08-28T16:54:43.824Z,0.82
2018-08-28T17:00:38.879Z,0.97
2018-08-28T17:06:33.865Z,1.03
2018-08-28T17:12:29.102Z,1.1
2018-08-28T17:18:23.853Z,0.99
2018-08-28T17:24:18.852Z,1.3
2018-08-28T17:30:13.854Z,1.72
2018-08-28T17:36:08.845Z,1.6
2018-08-28T17:42:03.891Z,1.83
2018-08-28T17:47:58.871Z,3.37
2018-08-28T17:53:53.864Z,4.53
2018-08-28T17:59:48.882Z,3.8
2018-08-28T18:05:43.879Z,2.86
2018-08-28T18:11:38.887Z,2.4
2018-08-28T18:17:33.915Z,1.98
2018-08-28T18:23:28.898Z,2.21
2018-08-28T18:29:23.916Z,1.98
2018-08-28T18:35:18.911Z,2.06
2018-08-28T18:41:13.960Z,1.93
2018-08-28T18:47:08.952Z,2.1
2018-08-28T18:53:03.944Z,1.92
2018-08-28T18:58:59.022Z,2.06
2018-08-28T19:04:53.923Z,1.73
2018-08-28T19:10:48.921Z,8.67
2018-08-28T19:16:43.976Z,2.1
2018-08-28T19:22:38.928Z,1.79
2018-08-28T19:28:33.993Z,2.11
2018-08-28T19:34:28.980Z,1.84
2018-08-28T19:40:23.940Z,2.2
2018-08-28T19:46:18.972Z,2.78
2018-08-28T19:52:14.016Z,2
2018-08-28T19:58:09.023Z,2.02
2018-08-28T20:04:04.032Z,2.14
2018-08-28T20:09:59.006Z,2.47
2018-08-28T20:15:53.959Z,2.11
2018-08-28T20:21:48.970Z,2.37
2018-08-28T20:27:44.013Z,2.32
2018-08-28T20:33:38.990Z,2.46
2018-08-28T20:39:33.996Z,2.4
2018-08-28T20:45:29.009Z,2.87
2018-08-28T20:51:23.994Z,2.49
2018-08-28T20:57:19.001Z,2.61
2018-08-28T21:03:14.032Z,2.38
2018-08-28T21:09:08.998Z,2.55
2018-08-28T21:15:04.078Z,2.38
2018-08-28T21:20:59.055Z,2.2
2018-08-28T21:26:54.014Z,4.73
2018-08-28T21:32:49.025Z,3.36
2018-08-28T21:38:44.010Z,5.02
2018-08-28T21:44:39.043Z,3.04
2018-08-28T21:50:34.016Z,3
2018-08-28T21:56:29.018Z,3.74
2018-08-28T22:02:24.024Z,2.52
2018-08-28T22:08:19.037Z,2.32
2018-08-28T22:14:14.044Z,2.31
2018-08-28T22:20:09.038Z,2.1
2018-08-28T22:26:04.039Z,2.37
2018-08-28T22:31:59.174Z,1.79
2018-08-28T22:37:54.089Z,1.79
2018-08-28T22:43:49.104Z,2.46
2018-08-28T22:49:44.092Z,2.29
2018-08-28T22:55:39.095Z,2.07
2018-08-28T23:01:34.157Z,2.27
2018-08-28T23:07:29.111Z,1.94
2018-08-28T23:13:24.122Z,1.92
2018-08-28T23:25:14.103Z,2.08
2018-08-28T23:25:14.149Z,2.13
2018-08-28T23:31:09.098Z,2.42
2018-08-28T23:37:04.114Z,2.1
2018-08-28T23:42:59.122Z,2.04
2018-08-28T23:48:54.184Z,2.31
2018-08-28T23:54:49.123Z,2.3
